Time;durP1;ratioP1;P1;durP2;ratioP2;P2;SDS_P1;SDS_P2;PMS_P1;PMS_P2;Temp;Humidity;BMP_temperature;BMP_pressure;BME280_temperature;BME280_humidity;BME280_pressure;Samples;Min_cycle;Max_cycle;Signal;HPM_P1;HPM_P2
2022/09/04 00:00:59;;;;;;;10.02;5.22;;;;;;;15.93;100.00;101333.16;5284733;28;20483;-74
2022/09/04 00:03:49;;;;;;;10.40;6.07;;;;;;;15.89;100.00;101336.41;5284935;28;20540;-74
2022/09/04 00:06:27;;;;;;;6.90;5.13;;;;;;;15.85;100.00;101338.66;5285582;28;20028;-74
2022/09/04 00:09:03;;;;;;;8.85;6.03;;;;;;;15.82;100.00;101336.34;5288996;28;20023;-74
2022/09/04 00:12:11;;;;;;;10.50;6.18;;;;;;;15.81;100.00;101334.63;5288588;28;20028;-75
2022/09/04 00:15:00;;;;;;;9.35;6.30;;;;;;;15.79;100.00;101342.13;5279514;28;20027;-74
2022/09/04 00:17:50;;;;;;;6.82;5.63;;;;;;;15.80;100.00;101338.38;5259953;28;20084;-74
2022/09/04 00:20:41;;;;;;;10.63;6.07;;;;;;;15.82;100.00;101338.22;5256427;28;20140;-75
2022/09/04 00:23:49;;;;;;;7.70;5.78;;;;;;;15.79;100.00;101337.53;5288326;28;20035;-74
2022/09/04 00:26:56;;;;;;;8.75;6.07;;;;;;;15.71;100.00;101337.66;5287780;28;20066;-75
2022/09/04 00:29:35;;;;;;;56.75;8.02;;;;;;;15.60;100.00;101343.50;5288139;28;20275;-74
2022/09/04 00:32:33;;;;;;;7.10;5.30;;;;;;;15.49;100.00;101347.50;5270235;28;20459;-76
2022/09/04 00:35:04;;;;;;;8.80;6.43;;;;;;;15.44;100.00;101341.00;5287601;28;20023;-75
2022/09/04 00:37:45;;;;;;;8.43;5.88;;;;;;;15.41;100.00;101347.63;5270123;28;20027;-75
2022/09/04 00:40:28;;;;;;;7.68;5.93;;;;;;;15.42;100.00;101353.88;5288197;28;20120;-75
2022/09/04 00:43:28;;;;;;;8.27;5.82;;;;;;;15.42;100.00;101357.41;5288305;28;20023;-75
2022/09/04 00:46:17;;;;;;;7.40;5.38;;;;;;;15.43;100.00;101355.53;5287222;28;20059;-75
2022/09/04 00:49:26;;;;;;;9.98;6.30;;;;;;;15.45;100.00;101356.19;5287640;28;20062;-74
2022/09/04 00:52:24;;;;;;;8.90;6.30;;;;;;;15.46;100.00;101366.81;5269427;28;20480;-74
2022/09/04 00:55:06;;;;;;;9.45;5.93;;;;;;;15.48;100.00;101363.94;5276537;28;20023;-75
2022/09/04 00:58:02;;;;;;;12.32;6.45;;;;;;;15.48;100.00;101367.47;5287972;28;20031;-75
2022/09/04 01:00:34;;;;;;;12.65;6.47;;;;;;;15.48;100.00;101377.44;5288024;28;20039;-75
2022/09/04 01:03:06;;;;;;;8.30;6.25;;;;;;;15.42;100.00;101370.91;5288520;28;20028;-75
2022/09/04 01:05:55;;;;;;;10.98;6.78;;;;;;;15.38;100.00;101376.88;5286905;28;20485;-75
2022/09/04 01:08:58;;;;;;;9.77;7.38;;;;;;;15.33;100.00;101374.72;5287855;28;20032;-75
2022/09/04 01:11:42;;;;;;;9.45;6.43;;;;;;;15.30;100.00;101375.09;5288134;28;20028;-76
2022/09/04 01:14:33;;;;;;;15.82;7.45;;;;;;;15.28;100.00;101379.84;5275396;28;20027;-74
2022/09/04 01:17:13;;;;;;;8.57;5.95;;;;;;;15.27;100.00;101380.88;5287068;28;20035;-74
2022/09/04 01:20:02;;;;;;;11.20;7.03;;;;;;;15.27;100.00;101381.72;5287151;28;20034;-74
2022/09/04 01:23:09;;;;;;;9.60;7.15;;;;;;;15.27;100.00;101387.13;5287603;28;20095;-74
2022/09/04 01:26:00;;;;;;;11.07;6.90;;;;;;;15.22;100.00;101386.00;5286955;28;20076;-74
2022/09/04 01:29:06;;;;;;;8.85;6.38;;;;;;;15.18;100.00;101387.38;5276245;28;20035;-75
2022/09/04 01:32:15;;;;;;;9.18;6.35;;;;;;;15.14;100.00;101392.31;5269246;28;20236;-75
2022/09/04 01:35:19;;;;;;;12.95;7.35;;;;;;;15.08;100.00;101393.03;5280984;28;20044;-74
2022/09/04 01:38:11;;;;;;;11.20;7.18;;;;;;;15.02;100.00;101399.19;5284081;28;20354;-74
2022/09/04 01:40:51;;;;;;;11.73;6.85;;;;;;;14.97;100.00;101398.88;5287163;28;20487;-74
2022/09/04 01:43:23;;;;;;;107.40;11.07;;;;;;;14.94;100.00;101410.03;5287456;28;20537;-74
2022/09/04 01:46:26;;;;;;;8.05;5.97;;;;;;;14.87;100.00;101409.94;5286509;28;20031;-72
2022/09/04 01:49:33;;;;;;;8.95;5.82;;;;;;;14.80;100.00;101417.06;5285869;28;20024;-73
2022/09/04 01:52:35;;;;;;;8.48;5.90;;;;;;;14.73;100.00;101422.34;5279739;28;20497;-74
2022/09/04 01:55:30;;;;;;;8.70;5.68;;;;;;;14.68;100.00;101422.06;5247851;28;20023;-75
2022/09/04 01:58:29;;;;;;;9.80;6.40;;;;;;;14.66;100.00;101420.53;5275751;28;20026;-74
2022/09/04 02:01:13;;;;;;;7.75;5.25;;;;;;;14.65;100.00;101425.09;5279817;28;20024;-74
2022/09/04 02:03:51;;;;;;;14.20;6.80;;;;;;;14.64;100.00;101428.81;5282444;28;20031;-74
2022/09/04 02:06:43;;;;;;;9.85;7.15;;;;;;;14.68;100.00;101426.63;5286378;28;20023;-74
2022/09/04 02:09:36;;;;;;;7.03;5.28;;;;;;;14.69;100.00;101423.72;5286840;28;20489;-75
2022/09/04 02:12:34;;;;;;;8.80;6.07;;;;;;;14.71;100.00;101424.41;5286603;28;20031;-74
2022/09/04 02:15:08;;;;;;;11.50;6.30;;;;;;;14.73;100.00;101426.91;5286463;28;20118;-75
2022/09/04 02:18:12;;;;;;;8.93;6.43;;;;;;;14.74;100.00;101431.28;5268660;28;20055;-74
2022/09/04 02:20:51;;;;;;;12.85;7.25;;;;;;;14.77;100.00;101430.94;5286074;28;20028;-74
2022/09/04 02:23:34;;;;;;;11.50;6.50;;;;;;;14.77;100.00;101430.94;5286502;28;20027;-74
2022/09/04 02:26:19;;;;;;;8.45;6.55;;;;;;;14.73;100.00;101437.72;5285849;28;20073;-75
2022/09/04 02:29:14;;;;;;;11.32;7.05;;;;;;;14.70;100.00;101440.75;5285822;28;20019;-74
2022/09/04 02:32:06;;;;;;;12.07;6.82;;;;;;;14.66;100.00;101448.41;5286661;28;20027;-74
2022/09/04 02:35:04;;;;;;;12.07;6.72;;;;;;;14.62;100.00;101440.84;5285521;28;20032;-75
2022/09/04 02:38:01;;;;;;;10.43;6.82;;;;;;;14.58;100.00;101450.31;5286105;28;20100;-74
2022/09/04 02:40:46;;;;;;;8.50;5.70;;;;;;;14.54;100.00;101447.13;5286274;28;20031;-75
2022/09/04 02:43:23;;;;;;;11.13;6.63;;;;;;;14.50;100.00;101446.63;5273440;28;20104;-73
2022/09/04 02:46:04;;;;;;;11.77;6.45;;;;;;;14.49;100.00;101447.63;5285607;28;20038;-75
2022/09/04 02:48:52;;;;;;;12.07;6.75;;;;;;;14.49;100.00;101452.19;5286537;28;20027;-75
2022/09/04 02:51:38;;;;;;;14.63;8.18;;;;;;;14.54;100.00;101455.22;5273282;28;20056;-75
2022/09/04 02:54:25;;;;;;;11.57;7.45;;;;;;;14.57;100.00;101454.88;5285288;28;20076;-74
2022/09/04 02:57:16;;;;;;;12.23;7.25;;;;;;;14.58;100.00;101458.41;5267846;28;20031;-74
2022/09/04 03:03:14;;;;;;;11.30;6.40;;;;;;;14.54;100.00;101457.91;5274854;28;20023;-74
2022/09/04 03:06:08;;;;;;;7.97;5.32;;;;;;;14.49;100.00;101465.69;5285695;28;20031;-74
2022/09/04 03:09:00;;;;;;;8.98;5.70;;;;;;;14.42;100.00;101462.84;5285223;28;20208;-74
2022/09/04 03:11:37;;;;;;;14.07;8.90;;;;;;;14.36;100.00;101471.66;5285801;28;20110;-74
2022/09/04 03:14:33;;;;;;;10.95;7.40;;;;;;;14.31;100.00;101463.25;5285964;28;20560;-74
2022/09/04 03:17:04;;;;;;;9.00;5.38;;;;;;;14.29;100.00;101464.41;5285521;28;20488;-74
2022/09/04 03:20:09;;;;;;;10.50;6.88;;;;;;;14.27;100.00;101470.00;5285509;28;20042;-74
2022/09/04 03:22:58;;;;;;;7.90;5.57;;;;;;;14.26;100.00;101476.44;5285958;28;20035;-74
2022/09/04 03:25:28;;;;;;;7.70;5.67;;;;;;;14.21;100.00;101474.25;5273200;28;20036;-73
2022/09/04 03:28:00;;;;;;;8.48;5.43;;;;;;;14.19;100.00;101472.72;5285873;28;20019;-74
2022/09/04 03:30:34;;;;;;;9.60;6.28;;;;;;;14.16;100.00;101475.78;5285680;28;20481;-74
2022/09/04 03:33:16;;;;;;;8.98;5.72;;;;;;;14.12;100.00;101483.38;5285724;28;20103;-73
2022/09/04 03:36:10;;;;;;;11.20;7.25;;;;;;;14.08;100.00;101482.03;5284003;28;20385;-73
2022/09/04 03:39:02;;;;;;;10.45;6.68;;;;;;;14.10;100.00;101487.25;5274756;28;20069;-72
2022/09/04 03:42:03;;;;;;;8.77;6.43;;;;;;;14.12;100.00;101487.94;5288220;28;20027;-74
2022/09/04 03:44:56;;;;;;;10.45;7.13;;;;;;;14.12;100.00;101482.53;5290118;28;20020;-74
2022/09/04 03:47:53;;;;;;;11.93;7.85;;;;;;;14.11;100.00;101494.34;5290379;28;20102;-74
2022/09/04 03:50:43;;;;;;;11.38;7.38;;;;;;;14.06;100.00;101494.88;5258736;28;20024;-74
2022/09/04 03:53:36;;;;;;;10.15;6.50;;;;;;;14.03;100.00;101495.22;5269330;28;20283;-74
2022/09/04 03:56:14;;;;;;;11.93;7.53;;;;;;;14.04;100.00;101496.88;5287930;28;20377;-73
2022/09/04 03:58:45;;;;;;;13.68;6.63;;;;;;;14.04;100.00;101506.84;5289195;28;20487;-74
2022/09/04 04:01:49;;;;;;;9.77;6.90;;;;;;;14.02;100.00;101501.63;5290061;28;20631;-74
2022/09/04 04:04:48;;;;;;;12.15;6.80;;;;;;;14.02;100.00;101507.03;5281493;28;20103;-74
2022/09/04 04:07:53;;;;;;;8.85;6.30;;;;;;;14.04;100.00;101496.88;5286665;28;20527;-74
2022/09/04 04:10:34;;;;;;;7.90;5.20;;;;;;;14.06;100.00;101505.66;5271193;28;20058;-75
2022/09/04 04:13:20;;;;;;;10.90;6.25;;;;;;;14.12;100.00;101504.97;5288944;28;20038;-74
2022/09/04 04:16:23;;;;;;;12.10;6.10;;;;;;;14.19;100.00;101502.41;5257794;28;20354;-74
2022/09/04 04:19:09;;;;;;;11.65;7.10;;;;;;;14.20;100.00;101502.22;5270330;28;20077;-72
2022/09/04 04:21:54;;;;;;;8.48;6.20;;;;;;;14.21;100.00;101511.19;5288462;28;20027;-72
2022/09/04 04:24:43;;;;;;;9.57;6.93;;;;;;;14.19;100.00;101511.34;5288394;28;20583;-72
2022/09/04 04:27:34;;;;;;;9.25;6.32;;;;;;;14.16;100.00;101509.00;5276195;28;20023;-72
2022/09/04 04:30:06;;;;;;;8.27;5.57;;;;;;;14.13;100.00;101505.81;5287578;28;20028;-72
2022/09/04 04:33:13;;;;;;;9.23;6.07;;;;;;;14.08;100.00;101503.63;5288859;28;20542;-72
2022/09/04 04:36:08;;;;;;;8.95;5.65;;;;;;;14.07;100.00;101501.94;5287924;28;20031;-71
2022/09/04 04:39:13;;;;;;;11.70;6.13;;;;;;;14.08;100.00;101500.94;5288561;28;20076;-71
2022/09/04 04:42:11;;;;;;;8.35;5.68;;;;;;;14.09;100.00;101505.31;5288418;28;20023;-73
2022/09/04 04:48:42;;;;;;;9.77;5.85;;;;;;;13.99;100.00;101518.97;5274952;28;20085;-72
2022/09/04 04:51:20;;;;;;;13.77;6.55;;;;;;;13.95;100.00;101519.50;5288326;28;20027;-72
2022/09/04 04:54:28;;;;;;;11.35;6.05;;;;;;;13.94;100.00;101521.34;5286856;28;20022;-73
2022/09/04 04:57:11;;;;;;;15.05;8.75;;;;;;;13.94;100.00;101523.22;5286918;28;20493;-73
2022/09/04 05:00:03;;;;;;;11.82;7.60;;;;;;;13.93;100.00;101529.63;5276758;28;20609;-73
2022/09/04 05:03:14;;;;;;;12.27;7.70;;;;;;;13.93;100.00;101530.47;5287929;28;20068;-73
2022/09/04 05:06:07;;;;;;;8.32;5.55;;;;;;;13.94;100.00;101550.19;5286739;28;20025;-72
2022/09/04 05:09:06;;;;;;;11.40;6.05;;;;;;;13.92;100.00;101547.69;5287380;28;20031;-73
2022/09/04 05:12:07;;;;;;;81.70;10.77;;;;;;;13.91;100.00;101553.25;5287596;28;20081;-73
2022/09/04 05:14:53;;;;;;;18.40;8.82;;;;;;;13.90;100.00;101557.78;5286986;28;20031;-73
2022/09/04 05:17:43;;;;;;;;;;;;;;;13.93;100.00;101559.31;5275140;28;20503;-73
2022/09/04 05:20:49;;;;;;;9.68;6.45;;;;;;;13.92;100.00;101563.84;5287201;28;19912;-73
2022/09/04 05:23:24;;;;;;;9.90;6.57;;;;;;;13.95;100.00;101565.34;5287148;28;20035;-73
2022/09/04 05:25:54;;;;;;;;;;;;;;;13.97;100.00;101566.03;5286977;28;20086;-74
2022/09/04 05:28:34;;;;;;;10.35;5.63;;;;;;;14.00;100.00;101579.16;5286943;28;19959;-71
2022/09/04 05:31:15;;;;;;;10.48;6.53;;;;;;;14.07;100.00;101576.66;5273852;28;20013;-73
2022/09/04 05:34:09;;;;;;;9.77;6.95;;;;;;;14.18;100.00;101585.22;5287152;28;20067;-73
2022/09/04 05:36:58;;;;;;;11.70;6.75;;;;;;;14.30;100.00;101585.69;5287093;28;20030;-73
2022/09/04 05:39:36;;;;;;;14.50;7.18;;;;;;;14.43;100.00;101591.41;5287152;28;20031;-73
2022/09/04 05:42:44;;;;;;;10.77;7.05;;;;;;;14.55;100.00;101596.44;5287281;28;20019;-73
2022/09/04 05:45:30;;;;;;;15.60;8.13;;;;;;;14.70;100.00;101600.09;5286186;28;20035;-70
2022/09/04 05:48:36;;;;;;;13.30;8.25;;;;;;;14.84;100.00;101596.66;5286439;28;20439;-70
2022/09/04 05:51:43;;;;;;;15.35;7.68;;;;;;;15.00;100.00;101603.84;5286441;28;20106;-72
2022/09/04 05:54:26;;;;;;;13.77;8.48;;;;;;;15.15;100.00;101610.19;5285891;28;20412;-73
2022/09/04 05:57:13;;;;;;;15.15;8.43;;;;;;;15.43;100.00;101606.97;5286541;28;20152;-73
2022/09/04 05:59:59;;;;;;;11.73;8.50;;;;;;;16.08;100.00;101609.19;5286895;28;20031;-73
2022/09/04 06:03:03;;;;;;;13.30;7.70;;;;;;;16.96;100.00;101615.66;5286654;28;20088;-73
2022/09/04 06:05:40;;;;;;;13.40;6.93;;;;;;;17.66;100.00;101617.69;5285456;28;20024;-72
2022/09/04 06:08:37;;;;;;;9.73;6.03;;;;;;;18.40;100.00;101609.09;5286614;28;20370;-73
2022/09/04 06:11:08;;;;;;;10.07;5.50;;;;;;;19.18;100.00;101606.16;5275332;28;20038;-73
2022/09/04 06:14:04;;;;;;;8.05;5.38;;;;;;;19.71;100.00;101612.56;5286201;28;20020;-71
2022/09/04 06:17:12;;;;;;;12.60;4.82;;;;;;;20.22;100.00;101613.81;5285742;28;20023;-72
2022/09/04 06:20:06;;;;;;;8.63;5.10;;;;;;;20.69;100.00;101604.53;5286246;28;20036;-71
2022/09/04 06:22:56;;;;;;;9.63;5.27;;;;;;;21.11;100.00;101613.19;5286079;28;20031;-71
2022/09/04 06:25:55;;;;;;;10.90;4.93;;;;;;;21.58;100.00;101619.22;5272367;28;20024;-71
2022/09/04 06:28:54;;;;;;;9.13;4.75;;;;;;;21.93;100.00;101614.94;5285373;28;20035;-71
2022/09/04 06:31:25;;;;;;;7.85;4.50;;;;;;;22.23;100.00;101609.66;5282935;28;20027;-71
2022/09/04 06:34:20;;;;;;;6.90;4.53;;;;;;;22.48;100.00;101615.09;5286058;28;20038;-71
2022/09/04 06:36:52;;;;;;;5.40;4.32;;;;;;;22.65;100.00;101620.00;5274078;28;20510;-71
2022/09/04 06:39:53;;;;;;;9.57;4.47;;;;;;;22.83;100.00;101624.59;5285782;28;20504;-71
2022/09/04 06:42:34;;;;;;;7.88;4.68;;;;;;;23.10;100.00;101622.41;5285995;28;20171;-71
2022/09/04 06:45:19;;;;;;;7.55;4.70;;;;;;;22.98;100.00;101636.84;5284581;28;20031;-71
2022/09/04 06:48:18;;;;;;;8.60;4.82;;;;;;;22.90;100.00;101642.66;5285557;28;20028;-71
2022/09/04 06:51:16;;;;;;;7.75;4.80;;;;;;;23.19;100.00;101637.44;5285660;28;20400;-72
2022/09/04 06:54:06;;;;;;;10.60;5.65;;;;;;;23.70;100.00;101638.88;5285269;28;20019;-71
2022/09/04 06:57:07;;;;;;;8.38;5.55;;;;;;;23.50;100.00;101648.19;5285648;28;20073;-71
2022/09/04 06:59:54;;;;;;;10.80;6.28;;;;;;;23.20;100.00;101639.13;5272969;28;20107;-71
2022/09/04 07:02:45;;;;;;;8.63;5.97;;;;;;;23.34;100.00;101648.81;5285495;28;20020;-71
2022/09/04 07:05:30;;;;;;;11.75;6.28;;;;;;;23.77;100.00;101651.38;5284915;28;20027;-71
2022/09/04 07:08:07;;;;;;;;;;;;;;;24.14;100.00;101653.94;5285384;28;20024;-71
2022/09/04 07:10:45;;;;;;;7.53;5.30;;;;;;;24.66;100.00;101651.34;5285323;28;20006;-72
2022/09/04 07:13:44;;;;;;;8.45;6.15;;;;;;;24.67;100.00;101658.50;5285675;28;20031;-71
2022/09/04 07:16:25;;;;;;;8.00;5.57;;;;;;;24.75;100.00;101660.03;5286230;28;20106;-71
2022/09/04 07:19:35;;;;;;;8.90;5.90;;;;;;;24.55;100.00;101657.69;5289836;28;20067;-71
2022/09/04 07:22:25;;;;;;;10.98;7.10;;;;;;;24.49;100.00;101662.19;5289801;28;20055;-72
2022/09/04 07:25:32;;;;;;;13.02;6.45;;;;;;;24.97;100.00;101669.31;5289032;28;20408;-71
2022/09/04 07:28:09;;;;;;;10.85;7.15;;;;;;;25.32;100.00;101665.66;5289555;28;20102;-71
2022/09/04 07:31:02;;;;;;;10.77;8.05;;;;;;;25.76;100.00;101663.22;5289512;28;20057;-71
2022/09/04 07:33:56;;;;;;;11.88;7.30;;;;;;;25.92;100.00;101673.38;5289602;28;20023;-72
2022/09/04 07:36:31;;;;;;;13.13;8.15;;;;;;;25.69;100.00;101670.72;5275776;28;20228;-71
2022/09/04 07:39:13;;;;;;;11.95;7.65;;;;;;;25.91;100.00;101676.38;5289312;28;20027;-71
2022/09/04 07:41:59;;;;;;;9.48;7.13;;;;;;;26.04;100.00;101673.28;5289467;28;20027;-71
2022/09/04 07:44:45;;;;;;;10.65;7.82;;;;;;;26.04;100.00;101679.63;5288818;28;20106;-72
2022/09/04 07:47:19;;;;;;;13.57;8.18;;;;;;;26.20;100.00;101685.38;5289099;28;20041;-71
2022/09/04 07:50:00;;;;;;;12.57;7.68;;;;;;;26.07;100.00;101681.88;5289032;28;20023;-71
2022/09/04 07:52:50;;;;;;;13.13;8.38;;;;;;;25.97;100.00;101689.13;5289003;28;20027;-71
2022/09/04 07:55:22;;;;;;;14.25;7.88;;;;;;;26.05;100.00;101681.28;5288267;28;20419;-71
2022/09/04 07:58:19;;;;;;;11.45;7.38;;;;;;;26.52;100.00;101686.47;5288921;28;20093;-72
2022/09/04 08:01:15;;;;;;;11.75;6.95;;;;;;;26.87;100.00;101681.72;5288949;28;20027;-72
2022/09/04 08:04:09;;;;;;;9.27;6.18;;;;;;;27.02;100.00;101685.50;5289028;28;20508;-71
2022/09/04 08:06:41;;;;;;;7.57;5.43;;;;;;;27.58;100.00;101694.47;5289100;28;20242;-71
2022/09/04 08:09:51;;;;;;;12.10;5.25;;;;;;;27.71;100.00;101690.47;5275164;28;20023;-71
2022/09/04 08:12:56;;;;;;;7.13;4.80;;;;;;;28.04;100.00;101696.84;5289014;28;20023;-72
2022/09/04 08:16:10;;;;;;;7.25;4.55;;;;;;;27.56;100.00;101690.28;5287962;28;20504;-71
2022/09/04 08:19:08;;;;;;;7.43;4.80;;;;;;;27.43;100.00;101699.81;5288444;28;20059;-72
2022/09/04 08:21:42;;;;;;;8.27;4.38;;;;;;;27.38;100.00;101699.75;5288729;28;20027;-71
2022/09/04 08:24:26;;;;;;;6.80;3.92;;;;;;;27.46;100.00;101703.94;5288130;28;20036;-72
2022/09/04 08:27:16;;;;;;;6.97;3.58;;;;;;;27.46;100.00;101699.31;5287663;28;20062;-71
2022/09/04 08:29:52;;;;;;;5.32;4.03;;;;;;;27.22;100.00;101703.41;5288816;28;20116;-72
2022/09/04 08:32:46;;;;;;;5.72;3.85;;;;;;;27.71;95.30;101701.50;5288653;28;20072;-72
2022/09/04 08:35:36;;;;;;;4.82;3.75;;;;;;;28.13;95.13;101703.56;5288082;28;20322;-72
2022/09/04 08:38:17;;;;;;;5.30;3.60;;;;;;;28.12;95.71;101708.25;5282552;28;20020;-72
2022/09/04 08:41:11;;;;;;;5.68;3.25;;;;;;;28.18;95.42;101702.78;5282152;28;20109;-71
2022/09/04 08:44:19;;;;;;;6.53;3.30;;;;;;;28.31;95.84;101713.34;5276181;28;20032;-72
2022/09/04 08:47:13;;;;;;;4.95;3.45;;;;;;;28.26;91.50;101714.13;5277867;28;20035;-72
2022/09/04 08:50:02;;;;;;;6.68;3.35;;;;;;;28.35;89.48;101709.81;5275357;28;20495;-72
2022/09/04 08:52:51;;;;;;;3.70;3.05;;;;;;;28.95;90.56;101720.72;5287825;28;20023;-73
2022/09/04 08:55:46;;;;;;;4.88;3.35;;;;;;;29.01;83.94;101722.41;5287344;28;20469;-72
2022/09/04 08:58:36;;;;;;;7.03;3.60;;;;;;;29.09;83.04;101722.75;5287921;28;20167;-72
2022/09/04 09:01:37;;;;;;;6.70;3.08;;;;;;;29.35;80.34;101718.13;5276198;28;20322;-72
2022/09/04 09:04:26;;;;;;;5.40;3.22;;;;;;;29.05;81.50;101718.84;5287837;28;20386;-72
2022/09/04 09:07:33;;;;;;;5.18;3.60;;;;;;;28.17;86.36;101723.19;5287100;28;20134;-72
2022/09/04 09:10:22;;;;;;;7.05;3.30;;;;;;;28.19;89.74;101712.69;5287346;28;20501;-71
2022/09/04 09:13:27;;;;;;;6.32;3.50;;;;;;;28.22;91.85;101720.47;5287617;28;20114;-72
2022/09/04 09:16:08;;;;;;;;;;;;;;;28.42;87.36;101726.19;5277884;28;20016;-71
2022/09/04 09:18:54;;;;;;;3.78;2.92;;;;;;;28.05;83.78;101723.34;5287345;28;20005;-72
2022/09/04 09:21:48;;;;;;;4.15;2.53;;;;;;;27.70;83.93;101721.84;5286823;28;20023;-72
2022/09/04 09:24:56;;;;;;;6.32;2.90;;;;;;;27.97;79.88;101721.91;5286920;28;20018;-71
2022/09/04 09:27:42;;;;;;;2.72;2.50;;;;;;;27.91;78.05;101719.34;5277946;28;20038;-71
2022/09/04 09:30:41;;;;;;;7.65;2.70;;;;;;;28.05;79.61;101718.66;5280076;28;20019;-72
2022/09/04 09:33:31;;;;;;;6.60;3.20;;;;;;;28.19;77.09;101721.81;5287397;28;20042;-72
2022/09/04 09:36:43;;;;;;;4.20;2.75;;;;;;;28.43;75.73;101721.47;5286342;28;20103;-72
2022/09/04 09:39:48;;;;;;;4.47;2.90;;;;;;;28.87;73.09;101727.56;5286667;28;20027;-72
2022/09/04 09:42:19;;;;;;;4.80;3.55;;;;;;;28.83;68.53;101723.69;5286531;28;20104;-72
2022/09/04 09:45:20;;;;;;;4.47;2.60;;;;;;;28.30;69.16;101722.72;5286797;28;20069;-72
2022/09/04 09:47:52;;;;;;;5.05;2.55;;;;;;;28.63;64.40;101722.44;5286645;28;20027;-73
2022/09/04 09:50:57;;;;;;;5.10;2.30;;;;;;;28.91;64.53;101728.69;5287051;28;20042;-72
2022/09/04 09:54:04;;;;;;;5.47;2.47;;;;;;;28.98;65.34;101723.78;5277291;28;20024;-72
2022/09/04 09:57:12;;;;;;;7.85;2.78;;;;;;;28.84;66.86;101733.63;5286464;28;20038;-72
2022/09/04 10:00:04;;;;;;;5.07;2.80;;;;;;;28.72;68.76;101717.28;5277905;28;20351;-72
2022/09/04 10:03:03;;;;;;;4.78;2.42;;;;;;;28.63;67.97;101707.81;5279726;28;20031;-72
2022/09/04 10:05:44;;;;;;;10.38;2.67;;;;;;;28.50;68.37;101714.63;5282700;28;20039;-72
2022/09/04 10:08:52;;;;;;;2.92;2.05;;;;;;;28.50;67.69;101714.63;5286287;28;20161;-72
2022/09/04 10:11:43;;;;;;;3.75;2.40;;;;;;;28.03;68.78;101709.00;5286123;28;20023;-72
2022/09/04 10:14:52;;;;;;;4.53;2.70;;;;;;;27.60;72.19;101710.72;5273653;28;20106;-72
2022/09/04 10:17:41;;;;;;;6.75;2.60;;;;;;;27.05;74.94;101707.00;5273181;28;20031;-72
2022/09/04 10:20:40;;;;;;;3.42;2.13;;;;;;;26.92;76.71;101715.66;5267801;28;20035;-72
2022/09/04 10:23:47;;;;;;;3.97;1.73;;;;;;;27.27;69.76;101709.81;5285999;28;20027;-71
2022/09/04 10:26:38;;;;;;;3.75;1.77;;;;;;;27.32;68.00;101715.38;5267589;28;20032;-71
2022/09/04 10:29:46;;;;;;;2.83;1.58;;;;;;;27.84;66.14;101722.31;5286145;28;20058;-71
2022/09/04 10:32:35;;;;;;;2.72;1.45;;;;;;;28.21;59.48;101716.84;5276064;28;20123;-72
2022/09/04 10:35:23;;;;;;;2.28;1.48;;;;;;;28.50;59.32;101720.16;5276115;28;20049;-72
2022/09/04 10:38:19;;;;;;;2.38;1.42;;;;;;;28.58;52.91;101713.31;5272756;28;20012;-72
2022/09/04 10:41:23;;;;;;;3.05;1.25;;;;;;;28.20;52.49;101720.72;5285627;28;20115;-72
2022/09/04 10:44:10;;;;;;;3.05;1.50;;;;;;;27.96;53.07;101724.91;5286133;28;20066;-71
2022/09/04 10:47:07;;;;;;;4.18;1.30;;;;;;;27.57;51.55;101723.13;5286159;28;20027;-72
2022/09/04 10:50:06;;;;;;;4.00;1.52;;;;;;;27.66;53.94;101728.97;5286012;28;20031;-72
2022/09/04 10:53:04;;;;;;;3.08;1.50;;;;;;;27.81;52.56;101706.28;5285311;28;20073;-72
2022/09/04 10:55:58;;;;;;;3.80;1.33;;;;;;;28.08;51.49;101706.28;5285565;28;20036;-72
2022/09/04 10:58:56;;;;;;;2.30;1.45;;;;;;;28.16;50.00;101714.03;5285503;28;20077;-72
2022/09/04 11:01:46;;;;;;;5.15;1.77;;;;;;;28.14;50.52;101716.25;5275290;28;20038;-72
2022/09/04 11:04:35;;;;;;;6.70;1.60;;;;;;;28.23;51.79;101714.69;5285437;28;20031;-73
2022/09/04 11:07:42;;;;;;;2.00;1.10;;;;;;;28.05;49.86;101710.38;5285703;28;20031;-72
2022/09/04 11:10:41;;;;;;;3.35;1.40;;;;;;;28.11;48.21;101702.97;5285572;28;20504;-72
2022/09/04 11:13:22;;;;;;;3.70;1.40;;;;;;;28.24;45.44;101716.34;5279440;28;20031;-72
2022/09/04 11:16:30;;;;;;;4.20;1.38;;;;;;;28.08;46.59;101707.09;5275366;28;20040;-72
2022/09/04 11:19:31;;;;;;;5.50;1.30;;;;;;;28.21;48.65;101714.09;5271195;28;20100;-72
2022/09/04 11:22:37;;;;;;;4.72;1.40;;;;;;;28.42;46.72;101709.63;5283312;28;20469;-72
2022/09/04 11:25:50;;;;;;;4.53;1.30;;;;;;;28.46;45.46;101702.44;5282315;28;20115;-72
2022/09/04 11:28:50;;;;;;;4.85;1.50;;;;;;;28.61;46.22;101708.06;5282596;28;20031;-72
2022/09/04 11:31:55;;;;;;;3.20;1.50;;;;;;;29.04;43.99;101702.56;5283158;28;20423;-72
2022/09/04 11:34:57;;;;;;;3.33;1.10;;;;;;;29.23;43.24;101709.25;5263907;28;20036;-72
2022/09/04 11:37:57;;;;;;;3.28;1.17;;;;;;;29.09;42.28;101714.44;5283205;28;20549;-72
2022/09/04 11:41:06;;;;;;;3.33;1.17;;;;;;;29.23;43.16;101705.66;5282911;28;20450;-72
2022/09/04 11:43:37;;;;;;;3.25;1.02;;;;;;;29.47;41.37;101708.78;5282758;28;20399;-72
2022/09/04 11:46:35;;;;;;;2.05;1.30;;;;;;;29.39;41.75;101712.91;5282512;28;20032;-72
2022/09/04 11:49:39;;;;;;;2.05;1.20;;;;;;;29.48;41.15;101705.75;5283279;28;20377;-72
2022/09/04 11:52:38;;;;;;;4.25;1.13;;;;;;;28.93;40.44;101714.63;5282993;28;20456;-72
2022/09/04 11:55:29;;;;;;;9.35;1.35;;;;;;;28.86;37.77;101706.56;5282029;28;20027;-72
2022/09/04 11:58:29;;;;;;;3.00;1.27;;;;;;;28.85;39.50;101713.19;5257044;28;20035;-72
2022/09/04 12:01:19;;;;;;;2.28;1.08;;;;;;;28.81;41.33;101709.28;5283103;28;20516;-72
2022/09/04 12:04:27;;;;;;;5.65;1.58;;;;;;;28.65;41.03;101709.22;5286199;28;20464;-73
2022/09/04 12:07:15;;;;;;;4.30;1.20;;;;;;;28.95;40.61;101716.03;5286750;28;20035;-72
2022/09/04 12:10:00;;;;;;;3.72;1.60;;;;;;;29.18;41.31;101725.00;5286773;28;20493;-72
2022/09/04 12:12:59;;;;;;;5.30;1.13;;;;;;;29.29;40.14;101710.94;5273517;28;20036;-73
2022/09/04 12:16:06;;;;;;;4.43;1.30;;;;;;;29.09;40.97;101708.91;5286206;28;20024;-72
2022/09/04 12:18:53;;;;;;;8.35;1.17;;;;;;;29.12;40.71;101722.22;5285651;28;20551;-72
2022/09/04 12:21:40;;;;;;;2.88;1.40;;;;;;;28.95;41.00;101716.03;5286323;28;20110;-72
2022/09/04 12:24:20;;;;;;;4.63;1.60;;;;;;;28.94;41.89;101717.13;5285863;28;20103;-72
2022/09/04 12:27:11;;;;;;;1.55;1.23;;;;;;;28.69;42.40;101717.78;5285980;28;20125;-71
2022/09/04 12:29:56;;;;;;;2.38;1.42;;;;;;;28.39;43.45;101718.41;5285967;28;20077;-72
2022/09/04 12:33:05;;;;;;;2.95;1.40;;;;;;;28.25;43.78;101714.41;5287031;28;20377;-72
2022/09/04 12:36:13;;;;;;;4.75;1.40;;;;;;;28.64;43.64;101720.53;5279780;28;20044;-72
2022/09/04 12:39:14;;;;;;;4.40;1.20;;;;;;;28.75;43.10;101715.88;5265314;28;20038;-72
2022/09/04 12:41:53;;;;;;;2.85;1.02;;;;;;;29.00;42.83;101718.81;5265296;28;20089;-71
2022/09/04 12:44:59;;;;;;;6.88;1.63;;;;;;;28.87;42.99;101722.06;5282153;28;20114;-72
2022/09/04 12:47:57;;;;;;;2.17;1.23;;;;;;;28.52;43.58;101717.97;5285725;28;20035;-72
2022/09/04 12:50:37;;;;;;;1.95;1.20;;;;;;;28.43;45.57;101714.03;5285696;28;20027;-72
2022/09/04 12:53:24;;;;;;;2.22;1.38;;;;;;;28.45;45.32;101711.00;5285309;28;20050;-73
2022/09/04 12:56:25;;;;;;;3.20;1.30;;;;;;;28.40;45.52;101714.56;5284872;28;20374;-73
2022/09/04 12:59:25;;;;;;;5.05;1.50;;;;;;;28.66;44.68;101721.06;5267410;28;20040;-75
2022/09/04 13:02:33;;;;;;;3.53;1.33;;;;;;;28.76;45.12;101707.34;5285933;28;20110;-72
2022/09/04 13:05:14;;;;;;;3.83;1.60;;;;;;;28.89;44.93;101717.09;5266632;28;20031;-73
2022/09/04 13:08:04;;;;;;;5.80;1.70;;;;;;;28.94;44.87;101719.91;5277358;28;20047;-73
2022/09/04 13:10:36;;;;;;;2.40;1.40;;;;;;;28.69;45.07;101717.78;5282283;28;20035;-72
2022/09/04 13:13:22;;;;;;;5.55;1.40;;;;;;;28.77;44.94;101725.59;5284805;27;20107;-73
2022/09/04 13:16:11;;;;;;;4.13;1.30;;;;;;;29.06;45.45;101725.19;5285306;28;20450;-72
2022/09/04 13:18:50;;;;;;;2.90;1.30;;;;;;;29.30;44.70;101722.81;5285584;28;20036;-73